Kezdőlap
METAR-TAF:

METAR-TAF

Repülőterek :

Harrisburg-Raleigh Airport

Harrisburg, Illinois, Amerikai Egyesült Államok

földrajzi szélesség: 37-48-41N, földrajzi hosszúság: 088-32-57W, magasság: 121 m

Jelenlegi meteorológiai megfigyelések

A jelentés 1 órával és 9 perccel ezelõtt készült, 09:55 UTC
Észak-északkeleti szél 4 kt
Hőmérséklet 21°C
Páratartalom 88%
Légköri nyomás 1018 hPa
Látótávolság: 16.1 km
Derült ég

METAR: KHSB 210955Z AUTO 03004KT 10SM CLR 21/19 A3006 RMK AO2 T02100185

Idő: 06:04 (11:04 UTC)


TAF: hiányzik

Meteorológiai megfigyelések és előrejelzések több, mint 4000 repülőtéren (METAR és TAF jelentéseket).

A térképen piros és sárga pontok jelzik az elérhető meteorológiai állomásokat.

Mozgassa az egeret a pont fölött, hogy megjelenjen az állomás neve.

Azután kattintson az időjárási megfigyelések és előrejelzések megtekintéséhez.

A térkép megváltoztatása: kattintson a fekete keresztel jelölt zöld gombra ráközelítéshez, a vonallal jelölt zöld gombra távolításhoz, vagy a zöld nyilakra a szomszédos térképek eléréséhez.


METAR-TAF: